Time;durP1;ratioP1;P1;durP2;ratioP2;P2;SDS_P1;SDS_P2;PMS_P1;PMS_P2;Temp;Humidity;BMP_temperature;BMP_pressure;BME280_temperature;BME280_humidity;BME280_pressure;Samples;Min_cycle;Max_cycle;Signal;HPM_P1;HPM_P2
2024/01/29 00:00:16;;;;;;;;;;;4.90;99.90;;;;;;5113724;28;19931;-31
2024/01/29 00:02:43;;;;;;;;;;;4.90;99.90;;;;;;5091936;28;19924;-32
2024/01/29 00:05:12;;;;;;;;;;;4.80;99.90;;;;;;5090250;28;19982;-34
2024/01/29 00:07:41;;;;;;;;;;;4.90;99.90;;;;;;5109811;28;20024;-31
2024/01/29 00:10:08;;;;;;;;;;;4.80;99.90;;;;;;5082401;28;19919;-32
2024/01/29 00:12:34;;;;;;;;;;;4.80;99.90;;;;;;5115663;28;19919;-33
2024/01/29 00:15:01;;;;;;;;;;;4.80;99.90;;;;;;5093221;28;19920;-32
2024/01/29 00:17:27;;;;;;;;;;;4.80;99.90;;;;;;5085297;28;20375;-32
2024/01/29 00:19:54;;;;;;;;;;;4.70;99.90;;;;;;5094332;28;19919;-32
2024/01/29 00:22:20;;;;;;;;;;;4.70;99.90;;;;;;5093295;28;19945;-32
2024/01/29 00:24:48;;;;;;;;;;;4.70;99.90;;;;;;5098642;28;19972;-32
2024/01/29 00:27:15;;;;;;;;;;;4.70;99.90;;;;;;5095825;28;20016;-32
2024/01/29 00:29:42;;;;;;;;;;;4.60;99.90;;;;;;5114644;28;20284;-32
2024/01/29 00:32:08;;;;;;;;;;;4.60;99.90;;;;;;5097500;28;19920;-31
2024/01/29 00:34:35;;;;;;;;;;;4.60;99.90;;;;;;5113952;28;19920;-33
2024/01/29 00:37:03;;;;;;;;;;;4.60;99.90;;;;;;5096525;28;19920;-31
2024/01/29 00:39:30;;;;;;;;;;;4.50;99.90;;;;;;5096473;28;19919;-31
2024/01/29 00:41:58;;;;;;;;;;;4.60;99.90;;;;;;5114337;28;19920;-32
2024/01/29 00:44:24;;;;;;;;;;;4.50;99.90;;;;;;5115946;28;19920;-32
2024/01/29 00:46:51;;;;;;;;;;;4.50;99.90;;;;;;5086693;28;19920;-32
2024/01/29 00:49:17;;;;;;;;;;;4.50;99.90;;;;;;5103941;28;19924;-31
2024/01/29 00:51:44;;;;;;;;;;;4.40;99.90;;;;;;5089839;28;19973;-32
2024/01/29 00:54:11;;;;;;;;;;;4.40;99.90;;;;;;5101699;28;19980;-33
2024/01/29 00:56:37;;;;;;;;;;;4.50;99.90;;;;;;5100302;28;19933;-32
2024/01/29 00:59:05;;;;;;;;;;;4.40;99.90;;;;;;5102278;28;19981;-31
2024/01/29 01:01:32;;;;;;;;;;;4.40;99.90;;;;;;5089773;28;19923;-32
2024/01/29 01:03:59;;;;;;;;;;;4.40;99.90;;;;;;5113777;28;20363;-33
2024/01/29 01:06:25;;;;;;;;;;;4.40;99.90;;;;;;5096314;28;19945;-31
2024/01/29 01:08:52;;;;;;;;;;;4.40;99.90;;;;;;5115476;28;20356;-34
2024/01/29 01:11:19;;;;;;;;;;;4.40;99.90;;;;;;5095531;28;19920;-33
2024/01/29 01:13:45;;;;;;;;;;;4.40;99.90;;;;;;5083270;28;20348;-32
2024/01/29 01:16:13;;;;;;;;;;;4.30;99.90;;;;;;5086413;28;19919;-32
2024/01/29 01:18:40;;;;;;;;;;;4.30;99.90;;;;;;5095353;28;19919;-31
2024/01/29 01:21:06;;;;;;;;;;;4.30;99.90;;;;;;5114844;28;19920;-30
2024/01/29 01:23:33;;;;;;;;;;;4.30;99.90;;;;;;5111707;28;19923;-31
2024/01/29 01:26:00;;;;;;;;;;;4.30;99.90;;;;;;5085644;28;20181;-31
2024/01/29 01:28:26;;;;;;;;;;;4.40;99.90;;;;;;5113422;28;19945;-32
2024/01/29 01:30:53;;;;;;;;;;;4.40;99.90;;;;;;5095248;28;19977;-32
2024/01/29 01:33:21;;;;;;;;;;;4.40;99.90;;;;;;5114178;28;19919;-34
2024/01/29 01:35:48;;;;;;;;;;;4.40;99.90;;;;;;5088998;28;19920;-32
2024/01/29 01:38:14;;;;;;;;;;;4.40;99.90;;;;;;5109094;28;19924;-32
2024/01/29 01:40:41;;;;;;;;;;;4.40;99.90;;;;;;5112755;28;20416;-32
2024/01/29 01:43:17;;;;;;;;;;;4.40;99.90;;;;;;5096020;28;19919;-32
2024/01/29 01:45:44;;;;;;;;;;;4.40;99.90;;;;;;5095018;28;19923;-31
2024/01/29 01:48:10;;;;;;;;;;;4.40;99.90;;;;;;5096132;28;19981;-33
2024/01/29 01:50:38;;;;;;;;;;;4.40;99.90;;;;;;5090277;28;19920;-32
2024/01/29 01:53:05;;;;;;;;;;;4.50;99.90;;;;;;5102622;28;19923;-32
2024/01/29 01:55:32;;;;;;;;;;;4.50;99.90;;;;;;5085477;28;20424;-31
2024/01/29 01:57:58;;;;;;;;;;;4.40;99.90;;;;;;5076417;28;19950;-33
2024/01/29 02:00:25;;;;;;;;;;;4.40;99.90;;;;;;5092348;28;19920;-32
2024/01/29 02:02:52;;;;;;;;;;;4.30;99.90;;;;;;5093220;28;19919;-31
2024/01/29 02:05:18;;;;;;;;;;;4.30;99.90;;;;;;5094022;28;19920;-31
2024/01/29 02:07:46;;;;;;;;;;;4.30;99.90;;;;;;5113718;28;19923;-31
2024/01/29 02:10:14;;;;;;;;;;;4.30;99.90;;;;;;5095679;28;19928;-33
2024/01/29 02:12:41;;;;;;;;;;;4.20;99.90;;;;;;5092149;28;19930;-31
2024/01/29 02:15:08;;;;;;;;;;;4.20;99.90;;;;;;5093116;28;19948;-32
2024/01/29 02:17:35;;;;;;;;;;;4.20;99.90;;;;;;5095228;28;19927;-31
2024/01/29 02:20:02;;;;;;;;;;;4.10;99.90;;;;;;5090996;28;20363;-31
2024/01/29 02:22:29;;;;;;;;;;;4.10;99.90;;;;;;5103426;28;19956;-34
2024/01/29 02:24:57;;;;;;;;;;;4.10;99.90;;;;;;5090437;28;19920;-34
2024/01/29 02:27:24;;;;;;;;;;;4.10;99.90;;;;;;5106835;28;19923;-32
2024/01/29 02:29:50;;;;;;;;;;;4.10;99.90;;;;;;5094346;28;19953;-32
2024/01/29 02:32:17;;;;;;;;;;;4.20;99.90;;;;;;5093479;28;20317;-32
2024/01/29 02:34:44;;;;;;;;;;;4.10;99.90;;;;;;5108994;28;20318;-33
2024/01/29 02:37:10;;;;;;;;;;;4.10;99.90;;;;;;5083434;28;20355;-32
2024/01/29 02:39:37;;;;;;;;;;;4.10;99.90;;;;;;5088537;28;20000;-32
2024/01/29 02:42:05;;;;;;;;;;;4.10;99.90;;;;;;5093435;28;19920;-32
2024/01/29 02:44:32;;;;;;;;;;;4.10;99.90;;;;;;5109141;28;20334;-32
2024/01/29 02:46:58;;;;;;;;;;;4.00;99.90;;;;;;5093205;28;19920;-31
2024/01/29 02:49:25;;;;;;;;;;;4.10;99.90;;;;;;5112216;28;20294;-32
2024/01/29 02:51:52;;;;;;;;;;;4.00;99.90;;;;;;5094395;28;20306;-32
2024/01/29 02:54:18;;;;;;;;;;;4.00;99.90;;;;;;5110880;28;20325;-33
2024/01/29 02:56:45;;;;;;;;;;;4.00;99.90;;;;;;5112152;28;19919;-33
2024/01/29 02:59:13;;;;;;;;;;;4.00;99.90;;;;;;5076417;28;19946;-33
2024/01/29 03:01:39;;;;;;;;;;;4.00;99.90;;;;;;5057662;28;19925;-31
2024/01/29 03:04:06;;;;;;;;;;;4.10;99.90;;;;;;5070783;28;19973;-31
2024/01/29 03:06:33;;;;;;;;;;;4.00;99.90;;;;;;5086626;28;19924;-32
2024/01/29 03:08:59;;;;;;;;;;;4.00;99.90;;;;;;5077913;28;19928;-33
2024/01/29 03:11:29;;;;;;;;;;;4.00;99.90;;;;;;5074661;28;19920;-32
2024/01/29 03:13:57;;;;;;;;;;;3.90;99.90;;;;;;5085930;28;19920;-32
2024/01/29 03:16:25;;;;;;;;;;;3.80;99.90;;;;;;5068914;28;19931;-32
2024/01/29 03:18:51;;;;;;;;;;;3.80;99.90;;;;;;5073686;28;19936;-32
2024/01/29 03:21:18;;;;;;;;;;;3.70;99.90;;;;;;5075086;28;19923;-32
2024/01/29 03:23:45;;;;;;;;;;;3.70;99.90;;;;;;5073734;28;19924;-32
2024/01/29 03:26:11;;;;;;;;;;;3.70;99.90;;;;;;5072174;28;20253;-32
2024/01/29 03:28:38;;;;;;;;;;;3.70;99.90;;;;;;5074096;28;19920;-33
2024/01/29 03:31:05;;;;;;;;;;;3.60;99.90;;;;;;5073031;28;19924;-32
2024/01/29 03:33:33;;;;;;;;;;;3.60;99.90;;;;;;5074504;28;19920;-33
2024/01/29 03:36:01;;;;;;;;;;;3.50;99.90;;;;;;5090366;28;19923;-36
2024/01/29 03:38:28;;;;;;;;;;;3.50;99.90;;;;;;5090520;28;19920;-32
2024/01/29 03:40:54;;;;;;;;;;;3.60;99.90;;;;;;5064943;28;19974;-32
2024/01/29 03:43:21;;;;;;;;;;;3.50;99.90;;;;;;5065279;28;20101;-33
2024/01/29 03:45:48;;;;;;;;;;;3.50;99.90;;;;;;5074322;28;19920;-31
2024/01/29 03:48:14;;;;;;;;;;;3.50;99.90;;;;;;5073203;28;19920;-32
2024/01/29 03:50:42;;;;;;;;;;;3.40;99.90;;;;;;5087137;28;19927;-33
2024/01/29 03:53:09;;;;;;;;;;;3.40;99.90;;;;;;5073906;28;19920;-31
2024/01/29 03:55:35;;;;;;;;;;;3.40;99.90;;;;;;5068580;28;19939;-31
2024/01/29 03:58:02;;;;;;;;;;;3.40;99.90;;;;;;5054474;28;19966;-31
2024/01/29 04:00:30;;;;;;;;;;;3.30;99.90;;;;;;5108538;28;20011;-31
2024/01/29 04:02:59;;;;;;;;;;;3.30;99.90;;;;;;5099656;28;20280;-31
2024/01/29 04:05:26;;;;;;;;;;;3.30;99.90;;;;;;5083055;28;19920;-31
2024/01/29 04:07:54;;;;;;;;;;;3.30;99.90;;;;;;5080321;28;19964;-32
2024/01/29 04:10:21;;;;;;;;;;;3.40;99.90;;;;;;5093642;28;19923;-32
2024/01/29 04:12:48;;;;;;;;;;;3.30;99.90;;;;;;5086476;28;20374;-31
2024/01/29 04:15:14;;;;;;;;;;;3.40;99.90;;;;;;5081530;28;19957;-30
2024/01/29 04:17:41;;;;;;;;;;;3.40;99.90;;;;;;5088861;28;19928;-30
2024/01/29 04:20:08;;;;;;;;;;;3.30;99.90;;;;;;5109343;28;19988;-31
2024/01/29 04:22:34;;;;;;;;;;;3.40;99.90;;;;;;5087967;28;19982;-30
2024/01/29 04:25:04;;;;;;;;;;;3.40;99.90;;;;;;5084931;28;19920;-33
2024/01/29 04:27:30;;;;;;;;;;;3.40;99.90;;;;;;5079752;28;19919;-31
2024/01/29 04:29:57;;;;;;;;;;;3.40;99.90;;;;;;5111669;28;19972;-32
2024/01/29 04:32:24;;;;;;;;;;;3.40;99.90;;;;;;5086192;28;20360;-32
2024/01/29 04:34:50;;;;;;;;;;;3.40;99.90;;;;;;5085395;28;20264;-31
2024/01/29 04:37:17;;;;;;;;;;;3.40;99.90;;;;;;5112649;28;19920;-31
2024/01/29 04:39:44;;;;;;;;;;;3.30;99.90;;;;;;5109951;28;19965;-33
2024/01/29 04:42:12;;;;;;;;;;;3.30;99.90;;;;;;5109484;28;19920;-31
2024/01/29 04:44:38;;;;;;;;;;;3.30;99.90;;;;;;5078793;28;19920;-31
2024/01/29 04:47:05;;;;;;;;;;;3.30;99.90;;;;;;5097389;28;19924;-32
2024/01/29 04:49:31;;;;;;;;;;;3.20;99.90;;;;;;5095892;28;19920;-32
2024/01/29 04:51:58;;;;;;;;;;;3.20;99.90;;;;;;5088128;28;20375;-32
2024/01/29 04:54:25;;;;;;;;;;;3.20;99.90;;;;;;5080575;28;19924;-33
2024/01/29 04:56:51;;;;;;;;;;;3.20;99.90;;;;;;5097216;28;20256;-32
2024/01/29 04:59:20;;;;;;;;;;;3.10;99.90;;;;;;5096001;28;19965;-32
2024/01/29 05:01:46;;;;;;;;;;;3.10;99.90;;;;;;5083397;28;19920;-33
2024/01/29 05:04:13;;;;;;;;;;;3.10;99.90;;;;;;5106942;28;20261;-33
2024/01/29 05:06:40;;;;;;;;;;;3.00;99.90;;;;;;5089234;28;20330;-35
2024/01/29 05:09:09;;;;;;;;;;;3.00;99.90;;;;;;5088643;28;19919;-32
2024/01/29 05:11:37;;;;;;;;;;;3.00;99.90;;;;;;5082271;28;19963;-34
2024/01/29 05:14:03;;;;;;;;;;;3.00;99.90;;;;;;5094234;28;20011;-32
2024/01/29 05:16:32;;;;;;;;;;;3.00;99.90;;;;;;5094019;28;19972;-33
2024/01/29 05:18:59;;;;;;;;;;;3.00;99.90;;;;;;5112252;28;19927;-31
2024/01/29 05:21:26;;;;;;;;;;;3.10;99.90;;;;;;5111562;28;19923;-32
2024/01/29 05:23:53;;;;;;;;;;;3.10;99.90;;;;;;5112352;28;20352;-31
2024/01/29 05:26:20;;;;;;;;;;;3.10;99.90;;;;;;5113045;28;19924;-33
2024/01/29 05:28:46;;;;;;;;;;;3.10;99.90;;;;;;5095543;28;20355;-32
2024/01/29 05:31:13;;;;;;;;;;;3.10;99.90;;;;;;5095758;28;20064;-32
2024/01/29 05:33:41;;;;;;;;;;;3.10;99.90;;;;;;5087231;28;19925;-31
2024/01/29 05:36:08;;;;;;;;;;;3.10;99.90;;;;;;5096054;28;20003;-31
2024/01/29 05:38:35;;;;;;;;;;;3.10;99.90;;;;;;5114301;28;20018;-33
2024/01/29 05:41:02;;;;;;;;;;;3.20;99.90;;;;;;5086142;28;20020;-33
2024/01/29 05:43:28;;;;;;;;;;;3.10;99.90;;;;;;5096521;28;19920;-31
2024/01/29 05:45:55;;;;;;;;;;;3.10;99.90;;;;;;5108865;28;19923;-34
2024/01/29 05:48:21;;;;;;;;;;;3.10;99.90;;;;;;5077630;28;19923;-35
2024/01/29 05:50:49;;;;;;;;;;;3.20;99.90;;;;;;5095976;28;20053;-32
2024/01/29 05:53:20;;;;;;;;;;;3.20;99.90;;;;;;5095791;28;19931;-32
2024/01/29 05:55:46;;;;;;;;;;;3.20;99.90;;;;;;5114389;28;19920;-31
2024/01/29 05:58:14;;;;;;;;;;;3.10;99.90;;;;;;5095785;28;20016;-33
2024/01/29 06:00:40;;;;;;;;;;;3.20;99.90;;;;;;5109728;28;20287;-32
2024/01/29 06:03:07;;;;;;;;;;;3.10;99.90;;;;;;5095710;28;19931;-34
2024/01/29 06:05:34;;;;;;;;;;;3.10;99.90;;;;;;5088881;28;19920;-31
2024/01/29 06:08:02;;;;;;;;;;;3.10;99.90;;;;;;5096438;28;19980;-31
2024/01/29 06:10:28;;;;;;;;;;;3.20;99.90;;;;;;5106236;28;20306;-30
2024/01/29 06:12:55;;;;;;;;;;;3.20;99.90;;;;;;5110354;28;19923;-32
2024/01/29 06:15:22;;;;;;;;;;;3.20;99.90;;;;;;5086853;28;19920;-31
2024/01/29 06:17:48;;;;;;;;;;;3.20;99.90;;;;;;5076250;28;19920;-32
2024/01/29 06:20:15;;;;;;;;;;;3.20;99.90;;;;;;5075958;28;20430;-31
2024/01/29 06:22:42;;;;;;;;;;;3.20;99.90;;;;;;5092697;28;19969;-31
2024/01/29 06:25:10;;;;;;;;;;;3.30;99.90;;;;;;5093488;28;19926;-32
2024/01/29 06:27:36;;;;;;;;;;;3.30;99.90;;;;;;5112838;28;20331;-33
2024/01/29 06:30:03;;;;;;;;;;;3.30;99.90;;;;;;5095195;28;19919;-32
2024/01/29 06:32:30;;;;;;;;;;;3.30;99.90;;;;;;5095435;28;19986;-31
2024/01/29 06:34:57;;;;;;;;;;;3.30;99.90;;;;;;5103688;28;20306;-31
2024/01/29 06:37:24;;;;;;;;;;;3.30;99.90;;;;;;5091124;28;19919;-31
2024/01/29 06:39:51;;;;;;;;;;;3.40;99.90;;;;;;5112520;28;20271;-31
2024/01/29 06:42:19;;;;;;;;;;;3.40;99.90;;;;;;5106833;28;19920;-31
2024/01/29 06:44:45;;;;;;;;;;;3.40;99.90;;;;;;5084753;28;19924;-32
2024/01/29 06:47:12;;;;;;;;;;;3.40;99.90;;;;;;5095364;28;19981;-31
2024/01/29 06:49:39;;;;;;;;;;;3.50;99.90;;;;;;5112657;28;20329;-33
2024/01/29 06:52:05;;;;;;;;;;;3.50;99.90;;;;;;5084466;28;19930;-33
2024/01/29 06:54:32;;;;;;;;;;;3.50;99.90;;;;;;5109234;28;19920;-32
2024/01/29 06:56:59;;;;;;;;;;;3.40;99.90;;;;;;5110294;28;20424;-32
2024/01/29 06:59:27;;;;;;;;;;;3.50;99.90;;;;;;5094477;28;19923;-31
2024/01/29 07:01:57;;;;;;;;;;;3.40;99.90;;;;;;5112845;28;20010;-30
2024/01/29 07:04:24;;;;;;;;;;;3.50;99.90;;;;;;5091920;28;19920;-31
2024/01/29 07:06:51;;;;;;;;;;;3.50;99.90;;;;;;5094761;28;19923;-31
2024/01/29 07:09:17;;;;;;;;;;;3.60;99.90;;;;;;5094182;28;19963;-33
2024/01/29 07:11:44;;;;;;;;;;;3.60;99.90;;;;;;5075010;28;19966;-32
2024/01/29 07:14:11;;;;;;;;;;;3.60;99.90;;;;;;5093530;28;19984;-32
2024/01/29 07:16:39;;;;;;;;;;;3.60;99.90;;;;;;5109625;28;19919;-33
2024/01/29 07:19:09;;;;;;;;;;;3.60;99.90;;;;;;5093642;28;19923;-33
2024/01/29 07:21:36;;;;;;;;;;;3.60;99.90;;;;;;5093221;28;19923;-33
2024/01/29 07:24:03;;;;;;;;;;;3.70;99.90;;;;;;5085757;28;19920;-32
2024/01/29 07:26:29;;;;;;;;;;;3.70;99.90;;;;;;5110616;28;19965;-32
2024/01/29 07:28:56;;;;;;;;;;;3.70;99.90;;;;;;5110592;28;19977;-32
2024/01/29 07:31:22;;;;;;;;;;;3.70;99.90;;;;;;5104275;28;20028;-33
2024/01/29 07:33:51;;;;;;;;;;;3.90;99.90;;;;;;5090821;28;19984;-33
2024/01/29 07:36:17;;;;;;;;;;;3.80;99.90;;;;;;5091103;28;20278;-31
2024/01/29 07:38:44;;;;;;;;;;;3.80;99.90;;;;;;5094985;28;19974;-31
2024/01/29 07:41:11;;;;;;;;;;;3.80;99.90;;;;;;5090421;28;19973;-32
2024/01/29 07:43:37;;;;;;;;;;;3.80;99.90;;;;;;5085110;28;19923;-32
2024/01/29 07:46:04;;;;;;;;;;;3.80;99.90;;;;;;5100918;28;19920;-31
2024/01/29 07:48:31;;;;;;;;;;;3.80;99.90;;;;;;5089025;28;19977;-32
2024/01/29 07:50:59;;;;;;;;;;;3.80;99.90;;;;;;5103643;28;19920;-32
2024/01/29 07:53:25;;;;;;;;;;;3.80;99.90;;;;;;5106627;28;19981;-32
2024/01/29 07:55:52;;;;;;;;;;;3.90;99.90;;;;;;5085563;28;19970;-31
2024/01/29 07:58:18;;;;;;;;;;;3.90;99.90;;;;;;5101903;28;20324;-31
2024/01/29 08:00:46;;;;;;;;;;;3.90;99.90;;;;;;5092945;28;20709;-32
2024/01/29 08:03:12;;;;;;;;;;;3.90;99.90;;;;;;5084009;28;19963;-31
2024/01/29 08:05:39;;;;;;;;;;;4.00;99.90;;;;;;5089457;28;19969;-32
2024/01/29 08:08:07;;;;;;;;;;;3.90;99.90;;;;;;5087973;28;19928;-31
2024/01/29 08:10:34;;;;;;;;;;;4.00;99.90;;;;;;5086854;28;19923;-32
2024/01/29 08:13:01;;;;;;;;;;;4.10;99.90;;;;;;5081810;28;19927;-31
2024/01/29 08:15:29;;;;;;;;;;;4.10;99.90;;;;;;5115160;28;19919;-32
2024/01/29 08:17:56;;;;;;;;;;;4.10;99.90;;;;;;5101635;28;19921;-32
2024/01/29 08:20:23;;;;;;;;;;;4.10;99.90;;;;;;5081033;28;19938;-31
2024/01/29 08:22:48;;;;;;;;;;;4.20;99.90;;;;;;5094652;28;20305;-31
2024/01/29 08:25:16;;;;;;;;;;;4.20;99.90;;;;;;5104642;28;19927;-31
2024/01/29 08:27:43;;;;;;;;;;;4.20;99.90;;;;;;5103540;28;19977;-32
2024/01/29 08:30:10;;;;;;;;;;;4.20;99.90;;;;;;5114434;28;19981;-31
2024/01/29 08:32:36;;;;;;;;;;;4.40;99.90;;;;;;5102836;28;19923;-32
2024/01/29 08:35:04;;;;;;;;;;;4.40;99.90;;;;;;5082100;28;19919;-31
2024/01/29 08:37:30;;;;;;;;;;;4.40;99.90;;;;;;5113491;28;20374;-32
2024/01/29 08:39:57;;;;;;;;;;;4.50;99.90;;;;;;5108809;28;19973;-32
2024/01/29 08:42:25;;;;;;;;;;;4.50;99.90;;;;;;5088309;28;20008;-33
2024/01/29 08:44:56;;;;;;;;;;;4.60;99.90;;;;;;5096731;28;19923;-32
2024/01/29 08:47:22;;;;;;;;;;;4.60;99.90;;;;;;5096787;28;19919;-32
2024/01/29 08:49:50;;;;;;;;;;;4.60;99.90;;;;;;5115496;28;19920;-32
2024/01/29 08:52:16;;;;;;;;;;;4.70;99.90;;;;;;5092116;28;19928;-32
2024/01/29 08:54:44;;;;;;;;;;;4.70;99.90;;;;;;5090717;28;19919;-32
2024/01/29 08:57:10;;;;;;;;;;;4.80;99.90;;;;;;5077401;28;20128;-32
2024/01/29 08:59:40;;;;;;;;;;;4.80;99.90;;;;;;5106463;28;19923;-32
2024/01/29 09:02:07;;;;;;;;;;;4.80;99.90;;;;;;5097860;28;19920;-33
2024/01/29 09:04:34;;;;;;;;;;;4.90;99.90;;;;;;5097534;28;20367;-31
2024/01/29 09:07:00;;;;;;;;;;;4.90;99.90;;;;;;5097155;28;19921;-32
2024/01/29 09:09:27;;;;;;;;;;;5.00;99.90;;;;;;5097320;28;19969;-32
2024/01/29 09:11:54;;;;;;;;;;;5.10;99.90;;;;;;5081609;28;19973;-32
2024/01/29 09:14:21;;;;;;;;;;;5.10;99.90;;;;;;5095084;28;19928;-32
2024/01/29 09:16:49;;;;;;;;;;;5.30;99.90;;;;;;5077104;28;19920;-34
2024/01/29 09:19:16;;;;;;;;;;;5.30;99.90;;;;;;5094834;28;20023;-34
2024/01/29 09:21:47;;;;;;;;;;;5.30;99.90;;;;;;5077050;28;19924;-33
2024/01/29 09:24:14;;;;;;;;;;;5.40;99.90;;;;;;5075899;28;19928;-33
2024/01/29 09:26:41;;;;;;;;;;;5.50;99.90;;;;;;5095030;28;19924;-32
2024/01/29 09:29:08;;;;;;;;;;;5.60;99.90;;;;;;5077023;28;19973;-34
2024/01/29 09:31:35;;;;;;;;;;;5.70;99.90;;;;;;5099977;28;20342;-33
2024/01/29 09:34:03;;;;;;;;;;;5.70;99.90;;;;;;5115174;28;20428;-32
2024/01/29 09:36:30;;;;;;;;;;;5.80;99.90;;;;;;5114788;28;19920;-33
2024/01/29 09:38:56;;;;;;;;;;;5.90;99.90;;;;;;5114216;28;20332;-34
2024/01/29 09:41:23;;;;;;;;;;;6.00;99.90;;;;;;5114965;28;19974;-33
2024/01/29 09:43:51;;;;;;;;;;;6.10;99.90;;;;;;5096996;28;19923;-34
2024/01/29 09:46:17;;;;;;;;;;;6.30;99.90;;;;;;5114692;28;19920;-33
2024/01/29 09:48:44;;;;;;;;;;;6.30;99.90;;;;;;5096527;28;19920;-33
2024/01/29 09:51:14;;;;;;;;;;;6.40;99.90;;;;;;5085962;28;20321;-33
2024/01/29 09:53:40;;;;;;;;;;;6.50;99.90;;;;;;5080101;28;19931;-33
2024/01/29 09:56:07;;;;;;;;;;;6.60;99.90;;;;;;5081043;28;20239;-31
2024/01/29 09:58:34;;;;;;;;;;;6.60;99.90;;;;;;5075919;28;19955;-33
2024/01/29 10:01:00;;;;;;;;;;;6.80;99.90;;;;;;5094373;28;19920;-33
2024/01/29 10:03:27;;;;;;;;;;;6.80;99.90;;;;;;5086561;28;19919;-33
2024/01/29 10:05:54;;;;;;;;;;;6.90;99.90;;;;;;5114456;28;19919;-34
2024/01/29 10:08:22;;;;;;;;;;;7.10;99.90;;;;;;5090874;28;19920;-33
2024/01/29 10:10:49;;;;;;;;;;;7.10;99.90;;;;;;5088324;28;19973;-32
2024/01/29 10:13:15;;;;;;;;;;;7.20;99.90;;;;;;5095630;28;19919;-34
2024/01/29 10:15:42;;;;;;;;;;;7.20;99.90;;;;;;5112340;28;20363;-33
2024/01/29 10:18:10;;;;;;;;;;;7.20;99.90;;;;;;5095759;28;19920;-34
2024/01/29 10:20:36;;;;;;;;;;;7.30;99.90;;;;;;5096148;28;19923;-33
2024/01/29 10:23:03;;;;;;;;;;;7.30;99.90;;;;;;5112942;28;19919;-32
2024/01/29 10:25:33;;;;;;;;;;;7.30;99.90;;;;;;5095763;28;19919;-33
2024/01/29 10:28:06;;;;;;;;;;;7.40;99.90;;;;;;5113946;28;20264;-32
2024/01/29 10:30:33;;;;;;;;;;;7.40;99.90;;;;;;5113889;28;20407;-33
2024/01/29 10:33:00;;;;;;;;;;;7.50;99.90;;;;;;5112063;28;19926;-32
2024/01/29 10:35:26;;;;;;;;;;;7.50;99.90;;;;;;5094950;28;19928;-32
2024/01/29 10:37:54;;;;;;;;;;;7.60;99.90;;;;;;5095128;28;19973;-32
2024/01/29 10:40:21;;;;;;;;;;;7.60;99.90;;;;;;5095495;28;20093;-32
2024/01/29 10:42:49;;;;;;;;;;;7.70;99.90;;;;;;5113887;28;20317;-32
2024/01/29 10:45:16;;;;;;;;;;;7.80;99.90;;;;;;5095713;28;19963;-34
2024/01/29 10:47:53;;;;;;;;;;;7.80;99.90;;;;;;5095458;28;20211;-32
2024/01/29 10:50:20;;;;;;;;;;;7.90;99.90;;;;;;5095194;28;19976;-32
2024/01/29 10:52:47;;;;;;;;;;;7.90;99.90;;;;;;5097175;28;19975;-33
2024/01/29 10:55:14;;;;;;;;;;;8.00;99.90;;;;;;5075065;28;19977;-32
2024/01/29 10:57:40;;;;;;;;;;;8.10;99.90;;;;;;5111922;28;19920;-33
2024/01/29 11:00:10;;;;;;;;;;;8.20;99.90;;;;;;5094928;28;19924;-33
2024/01/29 11:02:36;;;;;;;;;;;8.30;99.90;;;;;;5095299;28;19924;-32
2024/01/29 11:05:02;;;;;;;;;;;8.30;99.90;;;;;;5095145;28;19919;-32
2024/01/29 11:07:29;;;;;;;;;;;8.40;99.90;;;;;;5095306;28;19920;-32
2024/01/29 11:09:58;;;;;;;;;;;8.50;99.90;;;;;;5113422;28;19920;-32
2024/01/29 11:12:25;;;;;;;;;;;8.60;99.90;;;;;;5095332;28;19920;-33
2024/01/29 11:15:01;;;;;;;;;;;8.70;99.90;;;;;;5094517;28;19924;-34
2024/01/29 11:17:29;;;;;;;;;;;8.80;99.90;;;;;;5095005;28;19919;-33
2024/01/29 11:19:59;;;;;;;;;;;8.80;99.90;;;;;;5094990;28;20372;-33
2024/01/29 11:22:34;;;;;;;;;;;8.90;99.90;;;;;;5094920;28;19919;-33
2024/01/29 11:25:05;;;;;;;;;;;8.90;99.90;;;;;;5094900;28;19919;-31
2024/01/29 11:27:32;;;;;;;;;;;9.00;99.90;;;;;;5095082;28;19920;-31
2024/01/29 11:29:58;;;;;;;;;;;9.10;99.90;;;;;;5112972;28;19967;-32
2024/01/29 11:32:32;;;;;;;;;;;9.10;99.90;;;;;;5103379;28;20347;-33
2024/01/29 11:35:08;;;;;;;;;;;9.20;99.90;;;;;;5085345;28;19974;-33
2024/01/29 11:37:34;;;;;;;;;;;9.20;99.90;;;;;;5082157;28;19927;-33
2024/01/29 11:40:01;;;;;;;;;;;9.20;99.90;;;;;;5079325;28;20375;-32
2024/01/29 11:42:28;;;;;;;;;;;9.10;99.90;;;;;;5092044;28;20351;-31
2024/01/29 11:44:55;;;;;;;;;;;9.10;99.90;;;;;;5091073;28;19970;-32
2024/01/29 11:47:22;;;;;;;;;;;9.10;99.90;;;;;;5113226;28;19927;-31
2024/01/29 11:49:50;;;;;;;;;;;9.10;99.90;;;;;;5110294;28;19932;-31
2024/01/29 11:52:17;;;;;;;;;;;9.00;99.90;;;;;;5095372;28;19923;-31
2024/01/29 11:54:44;;;;;;;;;;;9.00;99.90;;;;;;5088683;28;20360;-31
2024/01/29 11:57:10;;;;;;;;;;;9.00;99.90;;;;;;5093793;28;19920;-32
2024/01/29 11:59:43;;;;;;;;;;;9.00;99.90;;;;;;5098944;28;19924;-32
2024/01/29 12:02:10;;;;;;;;;;;9.00;99.90;;;;;;5062026;28;19946;-32
2024/01/29 12:04:36;;;;;;;;;;;8.90;99.90;;;;;;5063018;28;20368;-32
2024/01/29 12:07:05;;;;;;;;;;;8.90;99.90;;;;;;5062964;28;19966;-32
2024/01/29 12:09:33;;;;;;;;;;;9.00;99.90;;;;;;5064211;28;19977;-33
2024/01/29 12:11:59;;;;;;;;;;;9.00;99.90;;;;;;5090330;28;20438;-32
2024/01/29 12:14:26;;;;;;;;;;;9.00;99.90;;;;;;5074166;28;19924;-32
2024/01/29 12:16:53;;;;;;;;;;;9.00;99.90;;;;;;5074787;28;19920;-32
2024/01/29 12:19:21;;;;;;;;;;;9.00;99.90;;;;;;5083949;28;19975;-33
2024/01/29 12:21:47;;;;;;;;;;;9.00;99.90;;;;;;5061098;28;19959;-33
2024/01/29 12:24:19;;;;;;;;;;;9.00;99.90;;;;;;5068256;28;19972;-32
2024/01/29 12:26:49;;;;;;;;;;;9.00;99.90;;;;;;5070648;28;19920;-33
2024/01/29 12:29:15;;;;;;;;;;;8.90;99.90;;;;;;5071900;28;20437;-33
2024/01/29 12:31:42;;;;;;;;;;;8.90;99.90;;;;;;5064851;28;19920;-31
2024/01/29 12:34:08;;;;;;;;;;;9.00;99.90;;;;;;5063595;28;20000;-31
2024/01/29 12:36:35;;;;;;;;;;;8.90;99.90;;;;;;5076030;28;20326;-31
2024/01/29 12:39:03;;;;;;;;;;;8.90;99.90;;;;;;5061465;28;20368;-32
2024/01/29 12:41:34;;;;;;;;;;;8.90;99.90;;;;;;5087920;28;20294;-31
2024/01/29 12:44:08;;;;;;;;;;;9.00;99.90;;;;;;5067830;28;19920;-32
2024/01/29 12:46:35;;;;;;;;;;;8.90;99.90;;;;;;5065589;28;19921;-32
2024/01/29 12:49:02;;;;;;;;;;;8.90;99.90;;;;;;5067207;28;19970;-32
2024/01/29 12:51:29;;;;;;;;;;;9.00;99.90;;;;;;5073375;28;19920;-32
2024/01/29 12:53:56;;;;;;;;;;;9.00;99.90;;;;;;5087137;28;19924;-34
2024/01/29 12:56:23;;;;;;;;;;;9.00;99.90;;;;;;5068983;28;20319;-32
2024/01/29 12:58:51;;;;;;;;;;;9.00;99.90;;;;;;5061761;28;20040;-32
2024/01/29 13:01:17;;;;;;;;;;;9.10;99.90;;;;;;5069313;28;19966;-33
2024/01/29 13:03:44;;;;;;;;;;;9.10;99.90;;;;;;5077312;28;20283;-35
2024/01/29 13:06:11;;;;;;;;;;;9.20;99.90;;;;;;5076427;28;20356;-33
2024/01/29 13:08:38;;;;;;;;;;;9.20;99.90;;;;;;5074321;28;20107;-34
2024/01/29 13:11:04;;;;;;;;;;;9.20;99.90;;;;;;5072470;28;19965;-33
2024/01/29 13:13:31;;;;;;;;;;;9.20;99.90;;;;;;5075148;28;19920;-34
2024/01/29 13:15:59;;;;;;;;;;;9.20;99.90;;;;;;5076409;28;19920;-34
2024/01/29 13:18:26;;;;;;;;;;;9.20;99.90;;;;;;5094870;28;19967;-33
2024/01/29 13:20:52;;;;;;;;;;;9.20;99.90;;;;;;5093311;28;20284;-35
2024/01/29 13:23:19;;;;;;;;;;;9.20;99.90;;;;;;5092261;28;19974;-36
2024/01/29 13:25:47;;;;;;;;;;;9.20;99.90;;;;;;5075721;28;19971;-34
2024/01/29 13:28:14;;;;;;;;;;;9.20;99.90;;;;;;5076188;28;19930;-34
2024/01/29 13:30:40;;;;;;;;;;;9.20;99.90;;;;;;5076096;28;19970;-33
2024/01/29 13:33:08;;;;;;;;;;;9.20;99.90;;;;;;5075498;28;19924;-33
2024/01/29 13:35:35;;;;;;;;;;;9.20;99.90;;;;;;5076122;28;19920;-33
2024/01/29 13:38:02;;;;;;;;;;;9.30;99.90;;;;;;5075151;28;19924;-33
2024/01/29 13:40:28;;;;;;;;;;;9.30;99.90;;;;;;5093241;28;20441;-33
2024/01/29 13:42:56;;;;;;;;;;;9.30;99.90;;;;;;5074765;28;20353;-33
2024/01/29 13:45:23;;;;;;;;;;;9.30;99.90;;;;;;5092122;28;19920;-33
2024/01/29 13:47:52;;;;;;;;;;;9.30;99.90;;;;;;5093817;28;19920;-31
2024/01/29 13:50:20;;;;;;;;;;;9.30;99.90;;;;;;5083270;28;20589;-32
2024/01/29 13:52:46;;;;;;;;;;;9.40;99.90;;;;;;5075234;28;20393;-33
2024/01/29 13:55:13;;;;;;;;;;;9.40;99.90;;;;;;5091251;28;19978;-32
2024/01/29 13:57:40;;;;;;;;;;;9.40;99.90;;;;;;5093293;28;19920;-31
2024/01/29 14:00:09;;;;;;;;;;;9.40;99.90;;;;;;5086954;28;19920;-34
2024/01/29 14:02:36;;;;;;;;;;;9.50;99.90;;;;;;5088340;28;19942;-31
2024/01/29 14:05:04;;;;;;;;;;;9.50;99.90;;;;;;5096063;28;19920;-32
2024/01/29 14:07:32;;;;;;;;;;;9.50;99.90;;;;;;5095508;28;19919;-31
2024/01/29 14:09:59;;;;;;;;;;;9.50;99.90;;;;;;5094076;28;19926;-34
2024/01/29 14:12:26;;;;;;;;;;;9.60;99.90;;;;;;5095710;28;19920;-35
2024/01/29 14:14:55;;;;;;;;;;;9.50;99.90;;;;;;5111965;28;19928;-32
2024/01/29 14:17:21;;;;;;;;;;;9.50;99.90;;;;;;5094585;28;20239;-35
2024/01/29 14:19:48;;;;;;;;;;;9.50;99.90;;;;;;5113019;28;19969;-32
2024/01/29 14:22:15;;;;;;;;;;;9.50;99.90;;;;;;5111587;28;19966;-33
2024/01/29 14:24:43;;;;;;;;;;;9.60;99.90;;;;;;5110585;28;19981;-32
2024/01/29 14:27:10;;;;;;;;;;;9.60;99.90;;;;;;5114067;28;19965;-33
2024/01/29 14:29:36;;;;;;;;;;;9.60;99.90;;;;;;5082698;28;19981;-33